createdAt,value
2023-01-25T00:01:24.759Z,99024.38
2023-01-25T00:03:53.839Z,99004.16
2023-01-25T00:06:23.408Z,99001.69
2023-01-25T00:08:51.551Z,99003.56
2023-01-25T00:11:20.476Z,99006.81
2023-01-25T00:13:48.605Z,98987.63
2023-01-25T00:16:16.867Z,99025.19
2023-01-25T00:18:45.012Z,99032.06
2023-01-25T00:21:14.134Z,99019.19
2023-01-25T00:23:43.922Z,99020.84
2023-01-25T00:26:12.112Z,99015.63
2023-01-25T00:28:40.839Z,99023.44
2023-01-25T00:31:12.842Z,99024.16
2023-01-25T00:33:45.727Z,99025.75
2023-01-25T00:36:33.682Z,99024.81
2023-01-25T00:39:03.219Z,99016.09
2023-01-25T00:41:31.553Z,99024.72
2023-01-25T00:43:59.835Z,98969.47
2023-01-25T00:46:27.905Z,99021.69
2023-01-25T00:48:56.430Z,99023.28
2023-01-25T00:51:25.550Z,98989.66
2023-01-25T00:53:53.739Z,98858.50
2023-01-25T00:56:23.289Z,99024.47
2023-01-25T00:58:51.503Z,99037.44
2023-01-25T01:01:19.721Z,98969.75
2023-01-25T01:03:47.906Z,98844.59
2023-01-25T01:06:16.022Z,99042.22
2023-01-25T01:08:44.440Z,99027.28
2023-01-25T01:11:14.350Z,98989.59
2023-01-25T01:13:43.984Z,99021.88
2023-01-25T01:16:14.387Z,99033.06
2023-01-25T01:18:44.198Z,99012.75
2023-01-25T01:21:13.675Z,99038.75
2023-01-25T01:23:42.517Z,98880.34
2023-01-25T01:26:14.499Z,99020.31
2023-01-25T01:28:45.123Z,99035.16
2023-01-25T01:31:14.884Z,99030.97
2023-01-25T01:33:43.042Z,99030.06
2023-01-25T01:36:12.838Z,98998.25
2023-01-25T01:38:41.394Z,99019.22
2023-01-25T01:41:10.221Z,98983.69
2023-01-25T01:43:38.949Z,99045.06
2023-01-25T01:46:13.976Z,99024.03
2023-01-25T01:48:47.016Z,99024.69
2023-01-25T01:51:20.665Z,99024.84
2023-01-25T01:53:52.237Z,98887.25
2023-01-25T01:56:28.209Z,99033.69
2023-01-25T01:58:57.486Z,99049.66
2023-01-25T02:01:27.388Z,99034.09
2023-01-25T02:03:56.650Z,99039.53
2023-01-25T02:06:35.861Z,99006.97
2023-01-25T02:09:04.551Z,98883.56
2023-01-25T02:11:34.510Z,99026.13
2023-01-25T02:14:04.002Z,98986.88
2023-01-25T02:16:33.679Z,99031.59
2023-01-25T02:19:03.808Z,99024.75
2023-01-25T02:21:40.031Z,99025.03
2023-01-25T02:24:13.830Z,99028.47
2023-01-25T02:26:44.001Z,99026.94
2023-01-25T02:29:12.743Z,99024.22
2023-01-25T02:31:40.923Z,99001.56
2023-01-25T02:34:09.372Z,99029.19
2023-01-25T02:36:37.553Z,99036.56
2023-01-25T02:39:08.952Z,99021.88
2023-01-25T02:41:39.972Z,99000.94
2023-01-25T02:44:12.804Z,99021.03
2023-01-25T02:46:42.797Z,99019.38
2023-01-25T02:49:11.878Z,99015.06
2023-01-25T02:51:41.927Z,98986.13
2023-01-25T02:54:12.750Z,98965.25
2023-01-25T02:56:41.975Z,99003.88
2023-01-25T02:59:13.524Z,98823.53
2023-01-25T03:01:43.497Z,98996.94
2023-01-25T03:04:12.144Z,98941.88
2023-01-25T03:06:41.613Z,98998.88
2023-01-25T03:09:11.494Z,98986.81
2023-01-25T03:11:39.767Z,98916.63
2023-01-25T03:14:07.995Z,98995.22
2023-01-25T03:16:37.566Z,98989.09
2023-01-25T03:19:05.825Z,98986.59
2023-01-25T03:21:33.917Z,98973.25
2023-01-25T03:24:03.314Z,98995.16
2023-01-25T03:26:31.560Z,98993.41
2023-01-25T03:28:59.728Z,98973.25
2023-01-25T03:31:28.074Z,98979.53
2023-01-25T03:33:57.687Z,98913.94
2023-01-25T03:36:25.869Z,98957.69
2023-01-25T03:38:54.017Z,98976.13
2023-01-25T03:41:22.225Z,98950.91
2023-01-25T03:43:50.367Z,98967.44
2023-01-25T03:46:18.468Z,98968.41
2023-01-25T03:48:47.127Z,98960.75
2023-01-25T03:51:16.727Z,98973.41
2023-01-25T03:53:44.895Z,98968.31
2023-01-25T03:56:17.690Z,98965.78
2023-01-25T03:58:45.827Z,98962.84
2023-01-25T04:01:14.105Z,98970.78
2023-01-25T04:03:42.271Z,98856.66
2023-01-25T04:06:10.713Z,98821.16
2023-01-25T04:08:40.477Z,98963.84
2023-01-25T04:11:10.679Z,98958.72
2023-01-25T04:13:39.837Z,98947.34
2023-01-25T04:16:11.869Z,98927.94
2023-01-25T04:18:40.808Z,98923.53
2023-01-25T04:21:08.996Z,98884.00
2023-01-25T04:23:37.073Z,98923.25
2023-01-25T04:26:09.480Z,98928.47
2023-01-25T04:28:37.633Z,98931.84
2023-01-25T04:31:06.331Z,98938.25
2023-01-25T04:33:35.287Z,98938.25
2023-01-25T04:36:03.654Z,98934.03
2023-01-25T04:38:31.746Z,98898.91
2023-01-25T04:40:59.952Z,98912.84
2023-01-25T04:43:29.587Z,98935.00
2023-01-25T04:45:57.847Z,98942.06
2023-01-25T04:48:26.018Z,98958.34
2023-01-25T04:50:54.208Z,98944.81
2023-01-25T04:53:22.408Z,98947.41
2023-01-25T04:55:50.941Z,98954.28
2023-01-25T04:58:19.668Z,98829.03
2023-01-25T05:00:49.256Z,98955.97
2023-01-25T05:03:17.408Z,98958.66
2023-01-25T05:05:48.286Z,98952.66
2023-01-25T05:08:16.424Z,98945.81
2023-01-25T05:10:44.733Z,98892.25
2023-01-25T05:13:12.896Z,98955.22
2023-01-25T05:15:41.059Z,98955.09
2023-01-25T05:18:10.724Z,98949.88
2023-01-25T05:20:38.925Z,98873.06
2023-01-25T05:23:07.104Z,98943.13
2023-01-25T05:25:52.415Z,98803.09
2023-01-25T05:28:20.544Z,98945.72
2023-01-25T05:30:48.698Z,98922.28
2023-01-25T05:33:18.235Z,98859.34
2023-01-25T05:35:46.357Z,98928.00
2023-01-25T05:38:14.453Z,98930.75
2023-01-25T05:40:42.765Z,98944.53
2023-01-25T05:43:11.140Z,98925.91
2023-01-25T05:45:40.401Z,98943.16
2023-01-25T05:48:08.659Z,98932.69
2023-01-25T05:50:38.219Z,98954.38
2023-01-25T05:53:06.314Z,98957.84
2023-01-25T05:55:36.866Z,98953.31
2023-01-25T05:58:05.025Z,98954.66
2023-01-25T06:00:33.300Z,98923.22
2023-01-25T06:03:02.445Z,98934.69
2023-01-25T06:05:30.863Z,98960.03
2023-01-25T06:08:00.931Z,98966.91
2023-01-25T06:10:29.083Z,98970.41
2023-01-25T06:13:00.364Z,98971.31
2023-01-25T06:15:28.550Z,98974.53
2023-01-25T06:17:57.235Z,98980.44
2023-01-25T06:20:25.496Z,98941.69
2023-01-25T06:22:54.131Z,98980.97
2023-01-25T06:25:23.705Z,98984.25
2023-01-25T06:27:51.921Z,98985.69
2023-01-25T06:30:20.124Z,98986.47
2023-01-25T06:32:48.285Z,98989.81
2023-01-25T06:35:16.461Z,98977.72
2023-01-25T06:37:44.728Z,98986.72
2023-01-25T06:40:13.640Z,98986.84
2023-01-25T06:42:43.487Z,98993.75
2023-01-25T06:45:12.427Z,99004.06
2023-01-25T06:47:41.373Z,99004.97
2023-01-25T06:50:10.936Z,99009.31
2023-01-25T06:52:39.097Z,99010.22
2023-01-25T06:55:12.955Z,99007.53
2023-01-25T06:57:42.474Z,99008.53
2023-01-25T07:00:11.995Z,98982.38
2023-01-25T07:02:40.221Z,98983.19
2023-01-25T07:05:10.770Z,98992.16
2023-01-25T07:07:39.137Z,98992.75
2023-01-25T07:10:08.226Z,98971.69
2023-01-25T07:12:37.108Z,98988.41
2023-01-25T07:15:08.164Z,98993.41
2023-01-25T07:17:36.513Z,98985.69
2023-01-25T07:20:04.770Z,98984.09
2023-01-25T07:22:32.943Z,98973.72
2023-01-25T07:25:02.279Z,98947.66
2023-01-25T07:27:33.914Z,98977.22
2023-01-25T07:30:02.012Z,98968.75
2023-01-25T07:32:31.618Z,98947.97
2023-01-25T07:34:59.713Z,98954.34
2023-01-25T07:37:28.254Z,98955.91
2023-01-25T07:39:58.321Z,98956.78
2023-01-25T07:42:26.562Z,98945.31
2023-01-25T07:44:54.695Z,98913.13
2023-01-25T07:47:22.934Z,98954.06
2023-01-25T07:49:52.520Z,98951.34
2023-01-25T07:52:20.649Z,98893.63
2023-01-25T07:54:50.074Z,98948.59
2023-01-25T07:57:18.228Z,98953.59
2023-01-25T07:59:46.421Z,98949.09
2023-01-25T08:02:14.540Z,98956.22
2023-01-25T08:04:42.762Z,98953.81
2023-01-25T08:07:12.755Z,98951.59
2023-01-25T08:09:41.560Z,98931.63
2023-01-25T08:12:09.979Z,98957.88
2023-01-25T08:14:38.515Z,98940.81
2023-01-25T08:17:06.642Z,98950.69
2023-01-25T08:19:34.760Z,98901.06
2023-01-25T08:22:02.944Z,98927.16
2023-01-25T08:24:32.565Z,98944.25
2023-01-25T08:27:00.863Z,98940.47
2023-01-25T08:29:29.119Z,98980.16
2023-01-25T08:31:57.344Z,98951.97
2023-01-25T08:34:25.736Z,98959.19
2023-01-25T08:36:53.861Z,98960.06
2023-01-25T08:39:22.064Z,98932.09
2023-01-25T08:41:51.663Z,98781.72
2023-01-25T08:44:22.472Z,98890.13
2023-01-25T08:46:50.793Z,98956.75
2023-01-25T08:49:19.030Z,98950.06
2023-01-25T08:51:48.276Z,98944.06
2023-01-25T08:54:16.452Z,98940.56
2023-01-25T08:56:44.609Z,98941.66
2023-01-25T08:59:14.767Z,98946.16
2023-01-25T09:01:42.940Z,98945.34
2023-01-25T09:04:11.101Z,98937.59
2023-01-25T09:06:39.309Z,98943.53
2023-01-25T09:09:08.642Z,98946.09
2023-01-25T09:11:38.321Z,98946.34
2023-01-25T09:14:06.514Z,98934.44
2023-01-25T09:16:37.007Z,98834.63
2023-01-25T09:19:06.766Z,98935.50
2023-01-25T09:21:35.971Z,98897.91
2023-01-25T09:24:05.885Z,98885.94
2023-01-25T09:26:35.989Z,98920.16
2023-01-25T09:29:04.498Z,98937.66
2023-01-25T09:31:32.792Z,98936.91
2023-01-25T09:34:02.404Z,98932.63
2023-01-25T09:36:30.565Z,98914.41
2023-01-25T09:38:58.736Z,98912.94
2023-01-25T09:41:38.424Z,98909.53
2023-01-25T09:44:31.453Z,98916.53
2023-01-25T09:47:03.037Z,98918.25
2023-01-25T09:49:50.820Z,98911.44
2023-01-25T09:52:48.358Z,98905.44
2023-01-25T09:55:20.407Z,98909.84
2023-01-25T09:57:51.084Z,98906.50
2023-01-25T10:00:25.629Z,98893.41
2023-01-25T10:02:58.644Z,98894.31
2023-01-25T10:05:34.399Z,98899.50
2023-01-25T10:08:07.482Z,98897.88
2023-01-25T10:10:39.482Z,98888.31
2023-01-25T10:13:12.766Z,98853.28
2023-01-25T10:15:45.348Z,98877.06
2023-01-25T10:18:23.197Z,98874.41
2023-01-25T10:20:58.501Z,98852.63
2023-01-25T10:23:43.553Z,98864.91
2023-01-25T10:26:16.078Z,98864.88
2023-01-25T10:28:49.089Z,98868.31
2023-01-25T10:31:20.198Z,98859.66
2023-01-25T10:33:49.973Z,98857.09
2023-01-25T10:36:24.800Z,98830.97
2023-01-25T10:38:59.249Z,98840.78
2023-01-25T10:41:35.585Z,98827.78
2023-01-25T10:44:21.189Z,98833.16
2023-01-25T10:46:55.928Z,98800.09
2023-01-25T10:49:28.793Z,98816.63
2023-01-25T10:51:58.538Z,98819.25
2023-01-25T10:54:28.201Z,98779.16
2023-01-25T10:56:58.666Z,98807.22
2023-01-25T10:59:29.930Z,98822.09
2023-01-25T11:02:02.635Z,98817.69
2023-01-25T11:04:33.717Z,98792.41
2023-01-25T11:07:05.140Z,98762.75
2023-01-25T11:09:38.959Z,98801.09
2023-01-25T11:12:18.529Z,98794.16
2023-01-25T11:14:49.845Z,98798.47
2023-01-25T11:17:27.363Z,98788.94
2023-01-25T11:20:19.631Z,98770.50
2023-01-25T11:22:53.507Z,98696.25
2023-01-25T11:25:30.800Z,98783.63
2023-01-25T11:28:17.877Z,98777.53
2023-01-25T11:30:47.229Z,98779.22
2023-01-25T11:33:18.210Z,98723.34
2023-01-25T11:36:01.556Z,98768.88
2023-01-25T11:38:31.823Z,98768.00
2023-01-25T11:41:11.438Z,98768.00
2023-01-25T11:43:58.800Z,98748.91
2023-01-25T11:46:40.504Z,98748.88
2023-01-25T11:49:46.857Z,98743.69
2023-01-25T11:52:28.919Z,98731.47
2023-01-25T11:55:07.883Z,98737.63
2023-01-25T11:57:59.687Z,98698.41
2023-01-25T12:00:43.953Z,98633.09
2023-01-25T12:03:48.161Z,98726.41
2023-01-25T12:06:23.305Z,98677.66
2023-01-25T12:09:09.609Z,98671.59
2023-01-25T12:11:54.049Z,98714.38
2023-01-25T12:14:33.908Z,98689.13
2023-01-25T12:17:22.142Z,98709.13
2023-01-25T12:20:23.083Z,98685.66
2023-01-25T12:23:06.219Z,98698.66
2023-01-25T12:25:46.263Z,98542.66
2023-01-25T12:28:22.196Z,98690.09
2023-01-25T12:30:56.795Z,98662.09
2023-01-25T12:33:30.778Z,98676.09
2023-01-25T12:36:05.568Z,98675.22
2023-01-25T12:38:40.215Z,98667.59
2023-01-25T12:41:18.201Z,98666.69
2023-01-25T12:43:52.775Z,98665.03
2023-01-25T12:46:29.626Z,98580.38
2023-01-25T12:49:02.604Z,98656.22
2023-01-25T12:51:36.874Z,98658.84
2023-01-25T12:54:15.418Z,98658.09
2023-01-25T12:56:50.252Z,98632.84
2023-01-25T12:59:28.605Z,98604.94
2023-01-25T13:02:03.965Z,98642.19
2023-01-25T13:04:50.596Z,98561.16
2023-01-25T13:07:26.753Z,98618.88
2023-01-25T13:10:00.757Z,98565.72
2023-01-25T13:12:29.086Z,98638.97
2023-01-25T13:14:58.755Z,98531.81
2023-01-25T13:17:35.522Z,98633.72
2023-01-25T13:20:26.423Z,98609.34
2023-01-25T13:22:58.965Z,98528.25
2023-01-25T13:25:27.718Z,98630.06
2023-01-25T13:28:42.376Z,98626.50
2023-01-25T13:31:46.320Z,98606.47
2023-01-25T13:34:59.601Z,98548.13
2023-01-25T13:37:30.296Z,98619.56
2023-01-25T13:40:06.428Z,98632.75
2023-01-25T13:42:36.423Z,98624.13
2023-01-25T13:45:14.387Z,98611.22
2023-01-25T13:47:46.620Z,98619.88
2023-01-25T13:50:21.823Z,98522.28
2023-01-25T13:52:59.894Z,98608.47
2023-01-25T13:55:28.407Z,98610.97
2023-01-25T13:58:10.675Z,98606.59
2023-01-25T14:00:39.035Z,98610.13
2023-01-25T14:03:08.643Z,98599.75
2023-01-25T14:05:37.219Z,98604.09
2023-01-25T14:08:05.611Z,98590.84
2023-01-25T14:10:33.857Z,98556.94
2023-01-25T14:13:03.499Z,98486.25
2023-01-25T14:15:34.052Z,98540.25
2023-01-25T14:18:12.566Z,98549.84
2023-01-25T14:20:41.155Z,98592.59
2023-01-25T14:23:22.827Z,98587.19
2023-01-25T14:25:51.336Z,98584.59
2023-01-25T14:28:20.162Z,98598.63
2023-01-25T14:30:53.270Z,98556.84
2023-01-25T14:33:26.710Z,98603.00
2023-01-25T14:36:01.668Z,98599.66
2023-01-25T14:38:36.679Z,98596.41
2023-01-25T14:41:18.164Z,98585.38
2023-01-25T14:43:49.249Z,98593.09
2023-01-25T14:46:22.720Z,98572.03
2023-01-25T14:48:53.169Z,98598.31
2023-01-25T14:51:28.593Z,98554.63
2023-01-25T14:54:02.942Z,98549.22
2023-01-25T14:56:38.483Z,98602.44
2023-01-25T14:59:07.936Z,98616.38
2023-01-25T15:01:40.366Z,98594.81
2023-01-25T15:04:14.471Z,98599.00
2023-01-25T15:06:47.671Z,98595.50
2023-01-25T15:09:36.737Z,98587.66
2023-01-25T15:12:07.640Z,98605.13
2023-01-25T15:14:49.535Z,98602.53
2023-01-25T15:17:43.216Z,98588.88
2023-01-25T15:20:35.359Z,98565.00
2023-01-25T15:23:13.573Z,98579.09
2023-01-25T15:25:50.820Z,98580.81
2023-01-25T15:28:19.054Z,98592.91
2023-01-25T15:30:47.627Z,98586.75
2023-01-25T15:33:22.368Z,98600.50
2023-01-25T15:35:52.758Z,98594.38
2023-01-25T15:38:21.993Z,98595.31
2023-01-25T15:40:50.438Z,98588.41
2023-01-25T15:43:20.258Z,98589.19
2023-01-25T15:45:50.309Z,98595.22
2023-01-25T15:48:24.436Z,98566.41
2023-01-25T15:50:55.591Z,98580.34
2023-01-25T15:53:23.778Z,98561.34
2023-01-25T15:55:56.004Z,98591.00
2023-01-25T15:58:27.871Z,98585.78
2023-01-25T16:00:56.199Z,98583.91
2023-01-25T16:03:24.339Z,98561.25
2023-01-25T16:05:57.496Z,98568.97
2023-01-25T16:08:25.890Z,98570.72
2023-01-25T16:10:54.047Z,98586.44
2023-01-25T16:13:24.046Z,98591.63
2023-01-25T16:15:54.599Z,98582.81
2023-01-25T16:18:22.934Z,98561.13
2023-01-25T16:20:51.668Z,98574.94
2023-01-25T16:23:21.401Z,98529.78
2023-01-25T16:25:50.228Z,98585.59
2023-01-25T16:28:18.579Z,98566.31
2023-01-25T16:30:46.732Z,98581.06
2023-01-25T16:33:15.084Z,98587.19
2023-01-25T16:35:43.257Z,98547.88
2023-01-25T16:38:13.201Z,98561.88
2023-01-25T16:40:42.835Z,98540.94
2023-01-25T16:43:11.103Z,98559.19
2023-01-25T16:45:39.873Z,98571.47
2023-01-25T16:48:08.501Z,98580.94
2023-01-25T16:50:36.709Z,98580.00
2023-01-25T16:53:04.870Z,98576.63
2023-01-25T16:55:32.972Z,98576.44
2023-01-25T16:58:02.480Z,98570.47
2023-01-25T17:00:30.585Z,98524.97
2023-01-25T17:03:00.083Z,98573.00
2023-01-25T17:05:34.234Z,98576.53
2023-01-25T17:08:02.522Z,98553.81
2023-01-25T17:10:34.804Z,98572.03
2023-01-25T17:13:06.030Z,98578.91
2023-01-25T17:15:35.374Z,98564.09
2023-01-25T17:18:03.506Z,98571.03
2023-01-25T17:20:31.684Z,98548.22
2023-01-25T17:22:59.853Z,98562.25
2023-01-25T17:25:28.163Z,98556.16
2023-01-25T17:27:56.313Z,98557.84
2023-01-25T17:30:25.889Z,98563.03
2023-01-25T17:32:54.085Z,98556.00
2023-01-25T17:35:22.210Z,98517.69
2023-01-25T17:37:50.400Z,98528.97
2023-01-25T17:40:18.911Z,98534.19
2023-01-25T17:42:47.001Z,98550.69
2023-01-25T17:45:15.106Z,98493.88
2023-01-25T17:47:44.732Z,98523.50
2023-01-25T17:50:14.286Z,98541.78
2023-01-25T17:52:42.369Z,98541.78
2023-01-25T17:55:10.907Z,98543.53
2023-01-25T17:57:39.089Z,98520.94
2023-01-25T18:00:11.839Z,98543.59
2023-01-25T18:02:40.434Z,98517.50
2023-01-25T18:05:10.609Z,98472.16
2023-01-25T18:07:39.065Z,98483.53
2023-01-25T18:10:08.877Z,98528.09
2023-01-25T18:12:37.602Z,98521.78
2023-01-25T18:15:06.816Z,98508.78
2023-01-25T18:17:35.864Z,98466.94
2023-01-25T18:20:06.065Z,98518.34
2023-01-25T18:22:35.742Z,98521.75
2023-01-25T18:25:04.233Z,98512.19
2023-01-25T18:27:32.656Z,98493.00
2023-01-25T18:30:03.034Z,98508.75
2023-01-25T18:32:32.954Z,98508.78
2023-01-25T18:35:01.161Z,98506.19
2023-01-25T18:37:33.556Z,98486.25
2023-01-25T18:40:03.119Z,98500.16
2023-01-25T18:42:31.295Z,98494.94
2023-01-25T18:44:59.571Z,98483.59
2023-01-25T18:47:27.722Z,98463.56
2023-01-25T18:49:56.008Z,98473.16
2023-01-25T18:52:25.240Z,98487.97
2023-01-25T18:54:53.567Z,98476.00
2023-01-25T18:57:23.233Z,98436.78
2023-01-25T18:59:51.517Z,98469.09
2023-01-25T19:02:20.290Z,98443.72
2023-01-25T19:04:48.464Z,98349.50
2023-01-25T19:07:16.745Z,98463.16
2023-01-25T19:09:44.993Z,98447.34
2023-01-25T19:12:13.223Z,98325.53
2023-01-25T19:14:42.855Z,98438.13
2023-01-25T19:17:11.133Z,98454.81
2023-01-25T19:19:39.422Z,98408.75
2023-01-25T19:22:07.885Z,98446.19
2023-01-25T19:24:36.164Z,98418.47
2023-01-25T19:27:04.689Z,98429.03
2023-01-25T19:29:33.044Z,98408.00
2023-01-25T19:32:02.725Z,98411.38
2023-01-25T19:34:30.910Z,98419.25
2023-01-25T19:36:59.128Z,98361.72
2023-01-25T19:39:27.368Z,98417.44
2023-01-25T19:41:55.554Z,98394.88
2023-01-25T19:44:24.995Z,98429.38
2023-01-25T19:46:53.152Z,98414.84
2023-01-25T19:49:23.676Z,98406.31
2023-01-25T19:51:53.999Z,98390.47
2023-01-25T19:54:24.327Z,98388.72
2023-01-25T19:56:52.918Z,98403.50
2023-01-25T19:59:24.877Z,98371.31
2023-01-25T20:01:53.757Z,98368.91
2023-01-25T20:04:25.183Z,98383.94
2023-01-25T20:06:53.576Z,98395.31
2023-01-25T20:09:25.085Z,98390.13
2023-01-25T20:11:55.621Z,98327.00
2023-01-25T20:14:23.820Z,98373.38
2023-01-25T20:16:52.920Z,98345.44
2023-01-25T20:19:22.662Z,98355.94
2023-01-25T20:21:50.955Z,98365.75
2023-01-25T20:24:19.418Z,98368.59
2023-01-25T20:26:47.735Z,98363.53
2023-01-25T20:29:16.131Z,98338.34
2023-01-25T20:31:45.795Z,98350.50
2023-01-25T20:34:15.510Z,98350.31
2023-01-25T20:36:46.807Z,98342.44
2023-01-25T20:39:16.869Z,98306.88
2023-01-25T20:41:45.298Z,98284.28
2023-01-25T20:44:15.388Z,98324.25
2023-01-25T20:46:44.163Z,98336.69
2023-01-25T20:49:15.755Z,98337.50
2023-01-25T20:51:45.937Z,98318.41
2023-01-25T20:54:14.636Z,98301.28
2023-01-25T20:56:43.174Z,98324.72
2023-01-25T20:59:11.555Z,98312.59
2023-01-25T21:01:40.209Z,98319.56
2023-01-25T21:04:09.817Z,98323.03
2023-01-25T21:06:38.875Z,98317.94
2023-01-25T21:09:08.684Z,98311.25
2023-01-25T21:11:37.051Z,98214.81
2023-01-25T21:14:05.423Z,98263.47
2023-01-25T21:16:33.712Z,98304.34
2023-01-25T21:19:06.475Z,98299.84
2023-01-25T21:21:35.470Z,98302.41
2023-01-25T21:24:05.526Z,98235.53
2023-01-25T21:26:37.335Z,98266.63
2023-01-25T21:29:06.722Z,98270.22
2023-01-25T21:31:37.405Z,98270.13
2023-01-25T21:34:07.011Z,98252.81
2023-01-25T21:36:35.182Z,98274.75
2023-01-25T21:39:03.506Z,98272.34
2023-01-25T21:41:34.716Z,98225.53
2023-01-25T21:44:20.780Z,98217.50
2023-01-25T21:47:16.359Z,98246.19
2023-01-25T21:49:54.531Z,98267.75
2023-01-25T21:52:22.740Z,98271.13
2023-01-25T21:54:50.928Z,98233.75
2023-01-25T21:57:20.783Z,98262.69
2023-01-25T21:59:49.025Z,98230.78
2023-01-25T22:02:17.224Z,98193.47
2023-01-25T22:04:45.465Z,98143.81
2023-01-25T22:07:13.638Z,98242.88
2023-01-25T22:09:41.729Z,98197.66
2023-01-25T22:12:11.257Z,98238.53
2023-01-25T22:14:41.412Z,98208.28
2023-01-25T22:17:09.501Z,98194.34
2023-01-25T22:19:37.708Z,98221.31
2023-01-25T22:22:06.175Z,98223.81
2023-01-25T22:24:34.733Z,98223.72
2023-01-25T22:27:23.175Z,98216.72
2023-01-25T22:29:53.335Z,98223.63
2023-01-25T22:32:21.884Z,98217.69
2023-01-25T22:34:50.406Z,98213.41
2023-01-25T22:37:18.647Z,98203.78
2023-01-25T22:39:47.114Z,98213.38
2023-01-25T22:42:15.730Z,98067.13
2023-01-25T22:44:44.240Z,98205.47
2023-01-25T22:47:14.022Z,98202.06
2023-01-25T22:49:42.630Z,98083.81
2023-01-25T22:52:10.759Z,98190.78
2023-01-25T22:54:38.891Z,98188.19
2023-01-25T22:57:07.336Z,98177.78
2023-01-25T22:59:35.450Z,98181.13
2023-01-25T23:02:03.556Z,98160.38
2023-01-25T23:04:33.143Z,98172.59
2023-01-25T23:07:12.299Z,98162.19
2023-01-25T23:09:41.247Z,98157.94
2023-01-25T23:12:09.674Z,98164.00
2023-01-25T23:14:53.869Z,98155.38
2023-01-25T23:17:41.442Z,98151.91
2023-01-25T23:20:13.591Z,98159.59
2023-01-25T23:22:41.884Z,98162.09
2023-01-25T23:25:11.487Z,98151.69
2023-01-25T23:27:40.066Z,98130.91
2023-01-25T23:30:10.512Z,98124.00
2023-01-25T23:32:38.978Z,98140.44
2023-01-25T23:35:08.114Z,98112.75
2023-01-25T23:37:37.680Z,98152.72
2023-01-25T23:40:09.468Z,98143.25
2023-01-25T23:42:38.000Z,98135.44
2023-01-25T23:45:07.439Z,98138.91
2023-01-25T23:47:35.995Z,98128.56
2023-01-25T23:50:04.269Z,98126.06
2023-01-25T23:52:35.049Z,98124.34
2023-01-25T23:55:06.547Z,98004.56
2023-01-25T23:57:34.710Z,98116.63
